sensor_id;sensor_type;location;lat;lon;timestamp;P1;durP1;ratioP1;P2;durP2;ratioP2
49384;SDS011;36795;45.028;38.968;2024-03-23T00:53:51;41.05;;;17.02;;
49384;SDS011;36795;45.028;38.968;2024-03-23T00:56:37;41.00;;;18.33;;
49384;SDS011;36795;45.028;38.968;2024-03-23T00:59:23;40.42;;;18.08;;
49384;SDS011;36795;45.028;38.968;2024-03-23T01:02:13;41.92;;;18.80;;
49384;SDS011;36795;45.028;38.968;2024-03-23T01:04:59;41.95;;;18.20;;
49384;SDS011;36795;45.028;38.968;2024-03-23T01:07:45;38.90;;;17.35;;
49384;SDS011;36795;45.028;38.968;2024-03-23T01:10:31;42.97;;;17.70;;
49384;SDS011;36795;45.028;38.968;2024-03-23T01:13:17;42.92;;;17.30;;
49384;SDS011;36795;45.028;38.968;2024-03-23T01:16:07;43.83;;;19.15;;
49384;SDS011;36795;45.028;38.968;2024-03-23T01:18:53;45.30;;;18.80;;
49384;SDS011;36795;45.028;38.968;2024-03-23T01:21:39;41.47;;;18.15;;
49384;SDS011;36795;45.028;38.968;2024-03-23T01:24:24;41.88;;;18.20;;
49384;SDS011;36795;45.028;38.968;2024-03-23T01:27:12;42.92;;;18.30;;
49384;SDS011;36795;45.028;38.968;2024-03-23T01:29:59;40.70;;;18.12;;
49384;SDS011;36795;45.028;38.968;2024-03-23T01:32:45;44.30;;;19.48;;
49384;SDS011;36795;45.028;38.968;2024-03-23T01:35:32;39.38;;;17.37;;
49384;SDS011;36795;45.028;38.968;2024-03-23T01:38:22;40.17;;;17.95;;
49384;SDS011;36795;45.028;38.968;2024-03-23T01:41:08;41.72;;;19.48;;
49384;SDS011;36795;45.028;38.968;2024-03-23T01:43:54;42.13;;;19.48;;
49384;SDS011;36795;45.028;38.968;2024-03-23T01:46:41;44.95;;;17.83;;
49384;SDS011;36795;45.028;38.968;2024-03-23T01:49:28;42.85;;;19.40;;
49384;SDS011;36795;45.028;38.968;2024-03-23T01:52:14;42.62;;;19.23;;
49384;SDS011;36795;45.028;38.968;2024-03-23T01:55:00;41.05;;;18.40;;
49384;SDS011;36795;45.028;38.968;2024-03-23T01:57:46;46.50;;;20.05;;
49384;SDS011;36795;45.028;38.968;2024-03-23T02:00:32;43.75;;;19.75;;
49384;SDS011;36795;45.028;38.968;2024-03-23T02:03:26;42.97;;;18.85;;
49384;SDS011;36795;45.028;38.968;2024-03-23T02:06:13;42.33;;;19.55;;
49384;SDS011;36795;45.028;38.968;2024-03-23T02:08:59;42.95;;;18.52;;
49384;SDS011;36795;45.028;38.968;2024-03-23T02:11:45;43.55;;;19.10;;
49384;SDS011;36795;45.028;38.968;2024-03-23T02:14:32;45.33;;;19.67;;
49384;SDS011;36795;45.028;38.968;2024-03-23T02:17:18;43.28;;;20.37;;
49384;SDS011;36795;45.028;38.968;2024-03-23T02:20:04;41.45;;;19.12;;
49384;SDS011;36795;45.028;38.968;2024-03-23T02:22:52;44.92;;;19.90;;
49384;SDS011;36795;45.028;38.968;2024-03-23T02:25:39;43.13;;;18.73;;
49384;SDS011;36795;45.028;38.968;2024-03-23T02:28:25;40.88;;;17.50;;
49384;SDS011;36795;45.028;38.968;2024-03-23T02:31:11;43.97;;;19.65;;
49384;SDS011;36795;45.028;38.968;2024-03-23T02:33:56;45.03;;;19.27;;
49384;SDS011;36795;45.028;38.968;2024-03-23T02:36:43;44.78;;;19.62;;
49384;SDS011;36795;45.028;38.968;2024-03-23T02:39:28;41.92;;;19.05;;
49384;SDS011;36795;45.028;38.968;2024-03-23T02:42:15;42.83;;;19.10;;
49384;SDS011;36795;45.028;38.968;2024-03-23T02:45:02;44.80;;;20.05;;
49384;SDS011;36795;45.028;38.968;2024-03-23T02:47:50;46.63;;;20.25;;
49384;SDS011;36795;45.028;38.968;2024-03-23T02:50:38;44.70;;;20.10;;
49384;SDS011;36795;45.028;38.968;2024-03-23T02:53:25;43.28;;;18.87;;
49384;SDS011;36795;45.028;38.968;2024-03-23T02:56:10;46.10;;;19.45;;
49384;SDS011;36795;45.028;38.968;2024-03-23T02:59:01;45.75;;;20.48;;
49384;SDS011;36795;45.028;38.968;2024-03-23T03:01:47;44.63;;;20.02;;
49384;SDS011;36795;45.028;38.968;2024-03-23T03:04:33;46.42;;;20.42;;
49384;SDS011;36795;45.028;38.968;2024-03-23T03:07:19;44.00;;;19.70;;
49384;SDS011;36795;45.028;38.968;2024-03-23T03:10:05;44.85;;;19.27;;
49384;SDS011;36795;45.028;38.968;2024-03-23T03:12:53;46.83;;;20.25;;
49384;SDS011;36795;45.028;38.968;2024-03-23T03:15:42;46.13;;;20.70;;
49384;SDS011;36795;45.028;38.968;2024-03-23T03:18:29;42.70;;;18.92;;
49384;SDS011;36795;45.028;38.968;2024-03-23T03:21:15;43.20;;;19.27;;
49384;SDS011;36795;45.028;38.968;2024-03-23T03:24:01;45.88;;;19.27;;
49384;SDS011;36795;45.028;38.968;2024-03-23T03:26:48;47.38;;;21.58;;
49384;SDS011;36795;45.028;38.968;2024-03-23T03:29:34;49.55;;;20.90;;
49384;SDS011;36795;45.028;38.968;2024-03-23T03:32:21;43.33;;;20.25;;
49384;SDS011;36795;45.028;38.968;2024-03-23T03:35:06;47.17;;;21.35;;
49384;SDS011;36795;45.028;38.968;2024-03-23T03:37:52;48.75;;;19.65;;
49384;SDS011;36795;45.028;38.968;2024-03-23T03:40:38;44.58;;;19.80;;
49384;SDS011;36795;45.028;38.968;2024-03-23T03:43:24;45.55;;;20.23;;
49384;SDS011;36795;45.028;38.968;2024-03-23T03:46:10;42.88;;;19.12;;
49384;SDS011;36795;45.028;38.968;2024-03-23T03:48:56;45.53;;;18.98;;
49384;SDS011;36795;45.028;38.968;2024-03-23T03:51:42;56.88;;;31.20;;
49384;SDS011;36795;45.028;38.968;2024-03-23T03:54:29;43.60;;;19.48;;
49384;SDS011;36795;45.028;38.968;2024-03-23T03:57:15;43.22;;;19.77;;
49384;SDS011;36795;45.028;38.968;2024-03-23T04:00:01;41.15;;;19.10;;
49384;SDS011;36795;45.028;38.968;2024-03-23T04:02:48;44.55;;;19.27;;
49384;SDS011;36795;45.028;38.968;2024-03-23T04:05:35;45.17;;;19.62;;
49384;SDS011;36795;45.028;38.968;2024-03-23T04:08:21;42.17;;;19.77;;
49384;SDS011;36795;45.028;38.968;2024-03-23T04:11:07;46.22;;;20.02;;
49384;SDS011;36795;45.028;38.968;2024-03-23T04:13:53;43.67;;;19.48;;
49384;SDS011;36795;45.028;38.968;2024-03-23T04:16:39;47.28;;;21.45;;
49384;SDS011;36795;45.028;38.968;2024-03-23T04:19:25;44.28;;;19.95;;
49384;SDS011;36795;45.028;38.968;2024-03-23T04:22:12;45.38;;;20.45;;
49384;SDS011;36795;45.028;38.968;2024-03-23T04:24:57;43.87;;;18.90;;
49384;SDS011;36795;45.028;38.968;2024-03-23T04:27:43;43.47;;;20.75;;
49384;SDS011;36795;45.028;38.968;2024-03-23T04:30:29;43.58;;;17.73;;
49384;SDS011;36795;45.028;38.968;2024-03-23T04:33:17;44.03;;;19.67;;
49384;SDS011;36795;45.028;38.968;2024-03-23T04:36:02;44.00;;;19.90;;
49384;SDS011;36795;45.028;38.968;2024-03-23T04:38:49;43.08;;;19.98;;
49384;SDS011;36795;45.028;38.968;2024-03-23T04:41:37;43.75;;;19.95;;
49384;SDS011;36795;45.028;38.968;2024-03-23T04:44:23;42.22;;;19.50;;
49384;SDS011;36795;45.028;38.968;2024-03-23T04:47:09;44.10;;;20.20;;
49384;SDS011;36795;45.028;38.968;2024-03-23T04:49:57;42.62;;;19.87;;
49384;SDS011;36795;45.028;38.968;2024-03-23T04:52:43;45.95;;;20.50;;
49384;SDS011;36795;45.028;38.968;2024-03-23T04:55:29;45.20;;;20.65;;
49384;SDS011;36795;45.028;38.968;2024-03-23T04:58:16;42.60;;;19.83;;
49384;SDS011;36795;45.028;38.968;2024-03-23T05:01:03;44.58;;;20.33;;
49384;SDS011;36795;45.028;38.968;2024-03-23T05:03:49;46.00;;;19.15;;
49384;SDS011;36795;45.028;38.968;2024-03-23T05:06:35;41.83;;;18.92;;
49384;SDS011;36795;45.028;38.968;2024-03-23T05:09:21;45.20;;;20.17;;
49384;SDS011;36795;45.028;38.968;2024-03-23T05:12:07;44.75;;;19.83;;
49384;SDS011;36795;45.028;38.968;2024-03-23T05:14:53;43.78;;;19.65;;
49384;SDS011;36795;45.028;38.968;2024-03-23T05:17:40;42.40;;;18.37;;
49384;SDS011;36795;45.028;38.968;2024-03-23T05:20:25;42.40;;;19.30;;
49384;SDS011;36795;45.028;38.968;2024-03-23T05:23:11;37.97;;;17.70;;
49384;SDS011;36795;45.028;38.968;2024-03-23T05:25:57;38.90;;;17.50;;
49384;SDS011;36795;45.028;38.968;2024-03-23T05:28:43;36.63;;;16.55;;
49384;SDS011;36795;45.028;38.968;2024-03-23T05:31:30;37.15;;;16.35;;
49384;SDS011;36795;45.028;38.968;2024-03-23T05:34:17;37.75;;;17.17;;
49384;SDS011;36795;45.028;38.968;2024-03-23T05:37:03;35.90;;;16.35;;
49384;SDS011;36795;45.028;38.968;2024-03-23T05:39:50;37.60;;;18.25;;
49384;SDS011;36795;45.028;38.968;2024-03-23T05:42:35;36.78;;;16.33;;
49384;SDS011;36795;45.028;38.968;2024-03-23T05:45:22;38.70;;;17.15;;
49384;SDS011;36795;45.028;38.968;2024-03-23T05:48:07;38.85;;;16.67;;
49384;SDS011;36795;45.028;38.968;2024-03-23T05:50:53;37.03;;;16.50;;
49384;SDS011;36795;45.028;38.968;2024-03-23T05:53:39;37.60;;;16.60;;
49384;SDS011;36795;45.028;38.968;2024-03-23T05:56:26;39.35;;;17.62;;
49384;SDS011;36795;45.028;38.968;2024-03-23T05:59:12;35.75;;;16.85;;
49384;SDS011;36795;45.028;38.968;2024-03-23T06:01:58;38.70;;;18.80;;
49384;SDS011;36795;45.028;38.968;2024-03-23T06:04:45;35.47;;;16.58;;
49384;SDS011;36795;45.028;38.968;2024-03-23T06:07:31;40.28;;;17.87;;
49384;SDS011;36795;45.028;38.968;2024-03-23T06:10:17;35.30;;;15.35;;
49384;SDS011;36795;45.028;38.968;2024-03-23T06:13:03;36.17;;;16.27;;
49384;SDS011;36795;45.028;38.968;2024-03-23T06:15:50;36.88;;;16.85;;
49384;SDS011;36795;45.028;38.968;2024-03-23T06:18:36;34.90;;;16.83;;
49384;SDS011;36795;45.028;38.968;2024-03-23T06:21:22;35.30;;;15.07;;
49384;SDS011;36795;45.028;38.968;2024-03-23T06:24:08;32.90;;;15.13;;
49384;SDS011;36795;45.028;38.968;2024-03-23T06:26:56;33.95;;;14.45;;
49384;SDS011;36795;45.028;38.968;2024-03-23T06:29:41;31.70;;;14.35;;
49384;SDS011;36795;45.028;38.968;2024-03-23T06:32:27;31.80;;;13.80;;
49384;SDS011;36795;45.028;38.968;2024-03-23T06:35:16;30.45;;;13.07;;
49384;SDS011;36795;45.028;38.968;2024-03-23T06:38:02;31.80;;;13.82;;
49384;SDS011;36795;45.028;38.968;2024-03-23T06:40:48;29.52;;;14.45;;
49384;SDS011;36795;45.028;38.968;2024-03-23T06:43:36;36.13;;;15.20;;
49384;SDS011;36795;45.028;38.968;2024-03-23T06:46:22;32.83;;;14.23;;
49384;SDS011;36795;45.028;38.968;2024-03-23T06:49:08;32.45;;;14.48;;
49384;SDS011;36795;45.028;38.968;2024-03-23T06:51:54;32.88;;;15.15;;
49384;SDS011;36795;45.028;38.968;2024-03-23T06:54:40;30.92;;;13.45;;
49384;SDS011;36795;45.028;38.968;2024-03-23T06:57:26;33.08;;;15.38;;
49384;SDS011;36795;45.028;38.968;2024-03-23T07:00:12;33.53;;;15.10;;
49384;SDS011;36795;45.028;38.968;2024-03-23T07:03:00;32.13;;;14.77;;
49384;SDS011;36795;45.028;38.968;2024-03-23T07:05:46;31.65;;;14.25;;
49384;SDS011;36795;45.028;38.968;2024-03-23T07:08:32;31.20;;;14.70;;
49384;SDS011;36795;45.028;38.968;2024-03-23T07:11:19;31.30;;;14.13;;
49384;SDS011;36795;45.028;38.968;2024-03-23T07:14:05;31.10;;;14.68;;
49384;SDS011;36795;45.028;38.968;2024-03-23T07:16:52;31.37;;;15.35;;
49384;SDS011;36795;45.028;38.968;2024-03-23T07:19:38;31.02;;;15.23;;
49384;SDS011;36795;45.028;38.968;2024-03-23T07:22:24;31.37;;;15.48;;
49384;SDS011;36795;45.028;38.968;2024-03-23T07:25:10;32.22;;;14.68;;
49384;SDS011;36795;45.028;38.968;2024-03-23T07:27:56;30.35;;;15.10;;
49384;SDS011;36795;45.028;38.968;2024-03-23T07:30:42;29.08;;;13.88;;
49384;SDS011;36795;45.028;38.968;2024-03-23T07:33:28;31.65;;;14.98;;
49384;SDS011;36795;45.028;38.968;2024-03-23T07:36:14;31.83;;;14.73;;
49384;SDS011;36795;45.028;38.968;2024-03-23T07:39:01;29.58;;;13.80;;
49384;SDS011;36795;45.028;38.968;2024-03-23T07:41:46;30.60;;;13.77;;
49384;SDS011;36795;45.028;38.968;2024-03-23T07:44:32;29.67;;;13.90;;
49384;SDS011;36795;45.028;38.968;2024-03-23T07:47:18;30.58;;;13.73;;
49384;SDS011;36795;45.028;38.968;2024-03-23T07:50:05;32.90;;;14.60;;
49384;SDS011;36795;45.028;38.968;2024-03-23T07:52:51;30.42;;;14.40;;
49384;SDS011;36795;45.028;38.968;2024-03-23T07:55:37;31.37;;;14.05;;
49384;SDS011;36795;45.028;38.968;2024-03-23T07:58:23;28.87;;;12.35;;
49384;SDS011;36795;45.028;38.968;2024-03-23T08:01:13;26.80;;;11.38;;
49384;SDS011;36795;45.028;38.968;2024-03-23T08:04:00;27.83;;;12.05;;
49384;SDS011;36795;45.028;38.968;2024-03-23T08:06:46;26.58;;;11.05;;
49384;SDS011;36795;45.028;38.968;2024-03-23T08:09:32;27.05;;;10.57;;
49384;SDS011;36795;45.028;38.968;2024-03-23T08:12:17;26.77;;;11.35;;
49384;SDS011;36795;45.028;38.968;2024-03-23T08:15:04;26.12;;;10.18;;
49384;SDS011;36795;45.028;38.968;2024-03-23T08:17:51;29.55;;;12.18;;
49384;SDS011;36795;45.028;38.968;2024-03-23T08:20:37;29.80;;;12.02;;
49384;SDS011;36795;45.028;38.968;2024-03-23T08:23:32;26.70;;;10.77;;
49384;SDS011;36795;45.028;38.968;2024-03-23T08:26:21;26.70;;;10.43;;
49384;SDS011;36795;45.028;38.968;2024-03-23T08:29:07;24.65;;;9.82;;
49384;SDS011;36795;45.028;38.968;2024-03-23T08:31:53;28.02;;;11.32;;
49384;SDS011;36795;45.028;38.968;2024-03-23T08:34:39;37.67;;;12.27;;
49384;SDS011;36795;45.028;38.968;2024-03-23T08:37:25;26.90;;;10.38;;
49384;SDS011;36795;45.028;38.968;2024-03-23T08:40:12;29.42;;;11.60;;
49384;SDS011;36795;45.028;38.968;2024-03-23T08:42:58;27.55;;;11.82;;
49384;SDS011;36795;45.028;38.968;2024-03-23T08:45:43;34.13;;;12.25;;
49384;SDS011;36795;45.028;38.968;2024-03-23T08:48:30;31.10;;;12.77;;
49384;SDS011;36795;45.028;38.968;2024-03-23T08:51:16;30.48;;;11.50;;
49384;SDS011;36795;45.028;38.968;2024-03-23T08:54:02;28.48;;;12.73;;
49384;SDS011;36795;45.028;38.968;2024-03-23T08:56:48;29.17;;;11.27;;
49384;SDS011;36795;45.028;38.968;2024-03-23T08:59:34;25.73;;;11.45;;
49384;SDS011;36795;45.028;38.968;2024-03-23T09:02:20;25.23;;;9.48;;
49384;SDS011;36795;45.028;38.968;2024-03-23T09:05:06;23.67;;;10.20;;
49384;SDS011;36795;45.028;38.968;2024-03-23T09:07:52;28.10;;;11.02;;
49384;SDS011;36795;45.028;38.968;2024-03-23T09:10:39;27.08;;;10.65;;
49384;SDS011;36795;45.028;38.968;2024-03-23T09:13:25;25.30;;;11.38;;
49384;SDS011;36795;45.028;38.968;2024-03-23T09:16:11;27.62;;;11.07;;
49384;SDS011;36795;45.028;38.968;2024-03-23T09:18:57;25.60;;;11.10;;
49384;SDS011;36795;45.028;38.968;2024-03-23T09:21:43;23.10;;;9.32;;
49384;SDS011;36795;45.028;38.968;2024-03-23T09:24:29;22.48;;;9.27;;
49384;SDS011;36795;45.028;38.968;2024-03-23T09:27:15;23.70;;;9.40;;
49384;SDS011;36795;45.028;38.968;2024-03-23T09:30:01;23.58;;;10.18;;
49384;SDS011;36795;45.028;38.968;2024-03-23T09:32:47;22.87;;;10.10;;
49384;SDS011;36795;45.028;38.968;2024-03-23T09:35:37;26.58;;;9.90;;
49384;SDS011;36795;45.028;38.968;2024-03-23T09:38:24;25.45;;;9.52;;
49384;SDS011;36795;45.028;38.968;2024-03-23T09:41:10;23.58;;;9.45;;
49384;SDS011;36795;45.028;38.968;2024-03-23T09:43:57;24.15;;;9.45;;
49384;SDS011;36795;45.028;38.968;2024-03-23T09:46:42;21.62;;;8.60;;
49384;SDS011;36795;45.028;38.968;2024-03-23T09:49:29;22.42;;;9.05;;
49384;SDS011;36795;45.028;38.968;2024-03-23T09:52:15;21.83;;;8.90;;
49384;SDS011;36795;45.028;38.968;2024-03-23T09:55:03;25.73;;;8.85;;
49384;SDS011;36795;45.028;38.968;2024-03-23T09:57:49;21.08;;;7.53;;
49384;SDS011;36795;45.028;38.968;2024-03-23T10:00:35;22.48;;;7.40;;
49384;SDS011;36795;45.028;38.968;2024-03-23T10:03:21;26.30;;;8.10;;
49384;SDS011;36795;45.028;38.968;2024-03-23T10:06:07;22.13;;;8.43;;
49384;SDS011;36795;45.028;38.968;2024-03-23T10:08:53;23.23;;;8.23;;
49384;SDS011;36795;45.028;38.968;2024-03-23T10:11:40;22.65;;;8.23;;
49384;SDS011;36795;45.028;38.968;2024-03-23T10:14:28;22.15;;;8.40;;
49384;SDS011;36795;45.028;38.968;2024-03-23T10:17:16;20.92;;;7.40;;
49384;SDS011;36795;45.028;38.968;2024-03-23T10:20:03;23.85;;;8.30;;
49384;SDS011;36795;45.028;38.968;2024-03-23T10:22:56;22.15;;;7.55;;
49384;SDS011;36795;45.028;38.968;2024-03-23T10:25:42;23.38;;;8.07;;
49384;SDS011;36795;45.028;38.968;2024-03-23T10:28:28;21.52;;;7.60;;
49384;SDS011;36795;45.028;38.968;2024-03-23T10:31:15;25.10;;;8.93;;
49384;SDS011;36795;45.028;38.968;2024-03-23T10:34:00;21.08;;;7.32;;
49384;SDS011;36795;45.028;38.968;2024-03-23T10:36:48;21.90;;;6.93;;
49384;SDS011;36795;45.028;38.968;2024-03-23T10:39:35;22.75;;;6.90;;
49384;SDS011;36795;45.028;38.968;2024-03-23T10:42:22;21.55;;;7.22;;
49384;SDS011;36795;45.028;38.968;2024-03-23T10:45:08;22.67;;;7.40;;
49384;SDS011;36795;45.028;38.968;2024-03-23T10:47:54;26.95;;;7.65;;
49384;SDS011;36795;45.028;38.968;2024-03-23T10:50:41;24.37;;;7.07;;
49384;SDS011;36795;45.028;38.968;2024-03-23T10:53:27;20.77;;;7.03;;
49384;SDS011;36795;45.028;38.968;2024-03-23T10:56:14;23.02;;;8.23;;
49384;SDS011;36795;45.028;38.968;2024-03-23T10:59:01;21.77;;;7.53;;
49384;SDS011;36795;45.028;38.968;2024-03-23T11:01:57;24.45;;;7.07;;
49384;SDS011;36795;45.028;38.968;2024-03-23T11:04:45;23.38;;;7.60;;
49384;SDS011;36795;45.028;38.968;2024-03-23T11:07:34;22.80;;;7.65;;
49384;SDS011;36795;45.028;38.968;2024-03-23T11:10:24;24.10;;;7.40;;
49384;SDS011;36795;45.028;38.968;2024-03-23T11:16:17;20.27;;;6.72;;
49384;SDS011;36795;45.028;38.968;2024-03-23T11:19:38;23.87;;;9.43;;
49384;SDS011;36795;45.028;38.968;2024-03-23T11:25:36;24.27;;;6.25;;
49384;SDS011;36795;45.028;38.968;2024-03-23T11:28:23;19.77;;;5.90;;
49384;SDS011;36795;45.028;38.968;2024-03-23T11:31:09;23.02;;;7.53;;
49384;SDS011;36795;45.028;38.968;2024-03-23T11:34:03;20.15;;;6.10;;
49384;SDS011;36795;45.028;38.968;2024-03-23T11:36:50;21.67;;;6.47;;
49384;SDS011;36795;45.028;38.968;2024-03-23T11:39:50;23.20;;;6.72;;
49384;SDS011;36795;45.028;38.968;2024-03-23T11:42:35;20.05;;;6.68;;
49384;SDS011;36795;45.028;38.968;2024-03-23T11:45:22;26.98;;;7.90;;
49384;SDS011;36795;45.028;38.968;2024-03-23T11:48:11;21.27;;;6.95;;
49384;SDS011;36795;45.028;38.968;2024-03-23T11:50:58;20.77;;;6.47;;
49384;SDS011;36795;45.028;38.968;2024-03-23T11:53:44;21.92;;;5.72;;
49384;SDS011;36795;45.028;38.968;2024-03-23T11:56:30;20.52;;;6.60;;
49384;SDS011;36795;45.028;38.968;2024-03-23T11:59:29;19.05;;;5.18;;
49384;SDS011;36795;45.028;38.968;2024-03-23T12:02:23;21.10;;;5.78;;
49384;SDS011;36795;45.028;38.968;2024-03-23T12:05:16;18.87;;;5.53;;
49384;SDS011;36795;45.028;38.968;2024-03-23T12:11:21;16.67;;;4.60;;
49384;SDS011;36795;45.028;38.968;2024-03-23T12:14:07;18.50;;;5.50;;
49384;SDS011;36795;45.028;38.968;2024-03-23T12:16:53;17.75;;;4.85;;
49384;SDS011;36795;45.028;38.968;2024-03-23T12:19:39;20.23;;;5.87;;
49384;SDS011;36795;45.028;38.968;2024-03-23T12:22:26;20.88;;;6.03;;
49384;SDS011;36795;45.028;38.968;2024-03-23T12:25:14;22.20;;;6.28;;
49384;SDS011;36795;45.028;38.968;2024-03-23T12:28:00;17.80;;;5.43;;
49384;SDS011;36795;45.028;38.968;2024-03-23T12:30:46;23.77;;;6.43;;
49384;SDS011;36795;45.028;38.968;2024-03-23T12:33:33;17.70;;;5.47;;
49384;SDS011;36795;45.028;38.968;2024-03-23T12:36:19;19.17;;;5.50;;
49384;SDS011;36795;45.028;38.968;2024-03-23T12:39:05;22.90;;;7.30;;
49384;SDS011;36795;45.028;38.968;2024-03-23T12:41:51;21.10;;;5.53;;
49384;SDS011;36795;45.028;38.968;2024-03-23T12:44:40;18.95;;;5.47;;
49384;SDS011;36795;45.028;38.968;2024-03-23T12:47:26;22.08;;;6.07;;
49384;SDS011;36795;45.028;38.968;2024-03-23T12:50:12;19.77;;;6.20;;
49384;SDS011;36795;45.028;38.968;2024-03-23T12:52:58;24.12;;;5.35;;
49384;SDS011;36795;45.028;38.968;2024-03-23T12:55:44;24.08;;;5.20;;
49384;SDS011;36795;45.028;38.968;2024-03-23T12:58:30;19.95;;;5.45;;
49384;SDS011;36795;45.028;38.968;2024-03-23T13:01:17;19.90;;;5.32;;
49384;SDS011;36795;45.028;38.968;2024-03-23T13:04:04;19.48;;;5.60;;
49384;SDS011;36795;45.028;38.968;2024-03-23T13:06:50;21.98;;;5.30;;
49384;SDS011;36795;45.028;38.968;2024-03-23T13:09:36;17.40;;;4.87;;
49384;SDS011;36795;45.028;38.968;2024-03-23T13:12:22;37.50;;;6.90;;
49384;SDS011;36795;45.028;38.968;2024-03-23T13:15:08;13.68;;;3.97;;
49384;SDS011;36795;45.028;38.968;2024-03-23T13:17:54;20.08;;;6.03;;
49384;SDS011;36795;45.028;38.968;2024-03-23T13:20:40;22.70;;;7.97;;
49384;SDS011;36795;45.028;38.968;2024-03-23T13:23:26;20.98;;;6.25;;
49384;SDS011;36795;45.028;38.968;2024-03-23T13:26:13;21.67;;;8.05;;
49384;SDS011;36795;45.028;38.968;2024-03-23T13:28:59;24.02;;;8.73;;
49384;SDS011;36795;45.028;38.968;2024-03-23T13:31:45;24.55;;;6.50;;
49384;SDS011;36795;45.028;38.968;2024-03-23T13:34:32;21.62;;;6.62;;
49384;SDS011;36795;45.028;38.968;2024-03-23T13:37:20;21.58;;;6.03;;
49384;SDS011;36795;45.028;38.968;2024-03-23T13:40:06;20.60;;;6.10;;
49384;SDS011;36795;45.028;38.968;2024-03-23T13:42:53;21.90;;;6.53;;
49384;SDS011;36795;45.028;38.968;2024-03-23T13:45:39;22.00;;;6.12;;
49384;SDS011;36795;45.028;38.968;2024-03-23T13:48:26;20.98;;;5.70;;
49384;SDS011;36795;45.028;38.968;2024-03-23T13:51:14;20.42;;;6.30;;
49384;SDS011;36795;45.028;38.968;2024-03-23T13:54:00;22.70;;;6.50;;
49384;SDS011;36795;45.028;38.968;2024-03-23T13:56:56;22.10;;;6.12;;
49384;SDS011;36795;45.028;38.968;2024-03-23T13:59:41;20.58;;;5.75;;
49384;SDS011;36795;45.028;38.968;2024-03-23T14:02:28;20.75;;;6.25;;
49384;SDS011;36795;45.028;38.968;2024-03-23T14:05:14;20.30;;;6.30;;
49384;SDS011;36795;45.028;38.968;2024-03-23T14:08:00;21.95;;;6.50;;
49384;SDS011;36795;45.028;38.968;2024-03-23T14:10:46;22.05;;;6.53;;
49384;SDS011;36795;45.028;38.968;2024-03-23T14:13:32;20.30;;;6.10;;
49384;SDS011;36795;45.028;38.968;2024-03-23T14:16:18;22.83;;;6.12;;
49384;SDS011;36795;45.028;38.968;2024-03-23T14:19:04;23.85;;;7.25;;
49384;SDS011;36795;45.028;38.968;2024-03-23T14:21:50;20.90;;;6.60;;
49384;SDS011;36795;45.028;38.968;2024-03-23T14:24:36;21.45;;;5.68;;
49384;SDS011;36795;45.028;38.968;2024-03-23T14:27:22;21.80;;;4.95;;
49384;SDS011;36795;45.028;38.968;2024-03-23T14:30:08;20.15;;;5.68;;
49384;SDS011;36795;45.028;38.968;2024-03-23T14:32:55;20.40;;;5.53;;
49384;SDS011;36795;45.028;38.968;2024-03-23T14:35:40;19.23;;;5.20;;
49384;SDS011;36795;45.028;38.968;2024-03-23T14:38:27;18.15;;;4.82;;
49384;SDS011;36795;45.028;38.968;2024-03-23T14:41:12;22.80;;;5.35;;
49384;SDS011;36795;45.028;38.968;2024-03-23T14:43:58;18.80;;;5.10;;
49384;SDS011;36795;45.028;38.968;2024-03-23T14:46:45;24.80;;;7.18;;
49384;SDS011;36795;45.028;38.968;2024-03-23T14:49:31;22.70;;;6.68;;
49384;SDS011;36795;45.028;38.968;2024-03-23T14:52:17;19.85;;;5.00;;
49384;SDS011;36795;45.028;38.968;2024-03-23T14:55:04;20.17;;;5.65;;
49384;SDS011;36795;45.028;38.968;2024-03-23T14:57:50;18.80;;;5.20;;
49384;SDS011;36795;45.028;38.968;2024-03-23T15:00:37;18.52;;;4.47;;
49384;SDS011;36795;45.028;38.968;2024-03-23T15:03:23;15.45;;;4.10;;
49384;SDS011;36795;45.028;38.968;2024-03-23T15:06:09;16.20;;;4.37;;
49384;SDS011;36795;45.028;38.968;2024-03-23T15:08:55;19.10;;;5.32;;
49384;SDS011;36795;45.028;38.968;2024-03-23T15:11:41;19.67;;;4.72;;
49384;SDS011;36795;45.028;38.968;2024-03-23T15:14:27;19.85;;;4.28;;
49384;SDS011;36795;45.028;38.968;2024-03-23T15:17:13;18.45;;;5.12;;
49384;SDS011;36795;45.028;38.968;2024-03-23T15:19:59;19.73;;;5.47;;
49384;SDS011;36795;45.028;38.968;2024-03-23T15:22:45;18.02;;;5.22;;
49384;SDS011;36795;45.028;38.968;2024-03-23T15:25:31;20.52;;;5.28;;
49384;SDS011;36795;45.028;38.968;2024-03-23T15:28:18;18.23;;;5.10;;
49384;SDS011;36795;45.028;38.968;2024-03-23T15:31:04;18.10;;;5.22;;
49384;SDS011;36795;45.028;38.968;2024-03-23T15:33:50;23.02;;;5.80;;
49384;SDS011;36795;45.028;38.968;2024-03-23T15:36:39;25.23;;;6.10;;
49384;SDS011;36795;45.028;38.968;2024-03-23T15:39:25;20.00;;;5.95;;
49384;SDS011;36795;45.028;38.968;2024-03-23T15:42:11;22.17;;;5.78;;
49384;SDS011;36795;45.028;38.968;2024-03-23T15:44:57;20.27;;;5.28;;
49384;SDS011;36795;45.028;38.968;2024-03-23T15:47:43;19.23;;;5.40;;
49384;SDS011;36795;45.028;38.968;2024-03-23T15:50:29;21.08;;;5.97;;
49384;SDS011;36795;45.028;38.968;2024-03-23T15:53:14;19.48;;;5.78;;
49384;SDS011;36795;45.028;38.968;2024-03-23T15:56:02;23.70;;;6.47;;
49384;SDS011;36795;45.028;38.968;2024-03-23T15:58:49;22.73;;;6.82;;
49384;SDS011;36795;45.028;38.968;2024-03-23T16:01:35;22.75;;;6.80;;
49384;SDS011;36795;45.028;38.968;2024-03-23T16:04:23;24.60;;;7.20;;
49384;SDS011;36795;45.028;38.968;2024-03-23T16:07:08;23.87;;;7.47;;
49384;SDS011;36795;45.028;38.968;2024-03-23T16:09:55;23.12;;;7.87;;
49384;SDS011;36795;45.028;38.968;2024-03-23T16:12:41;24.00;;;8.35;;
49384;SDS011;36795;45.028;38.968;2024-03-23T16:15:28;24.02;;;8.00;;
49384;SDS011;36795;45.028;38.968;2024-03-23T16:18:14;22.42;;;6.47;;
49384;SDS011;36795;45.028;38.968;2024-03-23T16:21:01;22.00;;;6.97;;
49384;SDS011;36795;45.028;38.968;2024-03-23T16:23:47;21.27;;;6.12;;
49384;SDS011;36795;45.028;38.968;2024-03-23T16:26:34;19.10;;;5.87;;
49384;SDS011;36795;45.028;38.968;2024-03-23T16:29:20;19.08;;;5.45;;
49384;SDS011;36795;45.028;38.968;2024-03-23T16:32:06;25.80;;;5.80;;
49384;SDS011;36795;45.028;38.968;2024-03-23T16:34:52;19.27;;;4.28;;
49384;SDS011;36795;45.028;38.968;2024-03-23T16:37:38;15.68;;;3.90;;
49384;SDS011;36795;45.028;38.968;2024-03-23T16:40:23;15.43;;;3.72;;
49384;SDS011;36795;45.028;38.968;2024-03-23T16:43:10;14.55;;;2.30;;
49384;SDS011;36795;45.028;38.968;2024-03-23T16:45:56;11.38;;;2.87;;
49384;SDS011;36795;45.028;38.968;2024-03-23T16:48:43;9.68;;;2.10;;
49384;SDS011;36795;45.028;38.968;2024-03-23T16:51:30;10.57;;;4.22;;
49384;SDS011;36795;45.028;38.968;2024-03-23T16:54:16;13.77;;;3.50;;
49384;SDS011;36795;45.028;38.968;2024-03-23T16:57:02;13.05;;;2.83;;
49384;SDS011;36795;45.028;38.968;2024-03-23T16:59:48;11.05;;;3.08;;
49384;SDS011;36795;45.028;38.968;2024-03-23T17:02:34;16.27;;;3.55;;
49384;SDS011;36795;45.028;38.968;2024-03-23T17:05:22;23.25;;;5.50;;
49384;SDS011;36795;45.028;38.968;2024-03-23T17:08:08;10.68;;;2.75;;
49384;SDS011;36795;45.028;38.968;2024-03-23T17:10:58;14.23;;;3.15;;